createdAt,value
2019-02-25T00:00:07.801Z,910.98
2019-02-25T00:01:07.771Z,910.97
2019-02-25T00:02:07.743Z,910.97
2019-02-25T00:03:07.763Z,910.98
2019-02-25T00:04:07.684Z,910.98
2019-02-25T00:05:07.650Z,910.96
2019-02-25T00:06:07.625Z,910.95
2019-02-25T00:07:07.581Z,910.94
2019-02-25T00:08:07.577Z,910.89
2019-02-25T00:09:07.535Z,910.90
2019-02-25T00:10:07.494Z,910.89
2019-02-25T00:11:07.506Z,910.89
2019-02-25T00:12:07.417Z,910.88
2019-02-25T00:13:07.386Z,910.90
2019-02-25T00:14:07.373Z,910.87
2019-02-25T00:15:07.334Z,910.89
2019-02-25T00:16:09.434Z,910.90
2019-02-25T00:17:07.276Z,911.00
2019-02-25T00:18:07.230Z,911.04
2019-02-25T00:19:07.553Z,911.14
2019-02-25T00:20:07.186Z,911.19
2019-02-25T00:21:07.182Z,911.23
2019-02-25T00:22:07.134Z,911.24
2019-02-25T00:23:07.097Z,911.26
2019-02-25T00:24:07.061Z,911.25
2019-02-25T00:25:07.215Z,911.28
2019-02-25T00:26:06.979Z,911.31
2019-02-25T00:27:06.993Z,911.30
2019-02-25T00:28:06.933Z,911.32
2019-02-25T00:29:06.900Z,911.34
2019-02-25T00:30:07.073Z,911.34
2019-02-25T00:31:06.856Z,911.35
2019-02-25T00:32:06.805Z,911.37
2019-02-25T00:33:06.782Z,911.37
2019-02-25T00:34:06.731Z,911.42
2019-02-25T00:35:06.717Z,911.42
2019-02-25T00:36:06.686Z,911.50
2019-02-25T00:37:06.641Z,911.54
2019-02-25T00:38:06.605Z,911.64
2019-02-25T00:39:06.603Z,911.66
2019-02-25T00:40:06.541Z,911.75
2019-02-25T00:41:06.684Z,911.75
2019-02-25T00:42:06.491Z,911.82
2019-02-25T00:43:06.467Z,911.88
2019-02-25T00:44:06.426Z,911.89
2019-02-25T00:45:06.407Z,911.91
2019-02-25T00:46:06.363Z,911.94
2019-02-25T00:47:06.495Z,911.97
2019-02-25T00:48:06.302Z,912.03
2019-02-25T00:49:06.282Z,912.04
2019-02-25T00:50:06.254Z,912.09
2019-02-25T00:51:06.201Z,912.11
2019-02-25T00:52:06.186Z,912.17
2019-02-25T00:53:06.443Z,912.14
2019-02-25T00:54:06.144Z,912.14
2019-02-25T00:55:06.093Z,912.26
2019-02-25T00:56:06.048Z,912.25
2019-02-25T00:57:06.005Z,912.24
2019-02-25T00:58:05.993Z,912.25
2019-02-25T00:59:06.097Z,912.26
2019-02-25T01:00:05.943Z,912.25
2019-02-25T01:01:05.905Z,912.24
2019-02-25T01:02:05.870Z,912.23
2019-02-25T01:03:05.837Z,912.28
2019-02-25T01:04:06.212Z,912.27
2019-02-25T01:05:05.779Z,912.26
2019-02-25T01:06:05.731Z,912.26
2019-02-25T01:07:05.709Z,912.25
2019-02-25T01:08:07.642Z,912.24
2019-02-25T01:09:05.996Z,912.23
2019-02-25T01:10:05.618Z,912.24
2019-02-25T01:11:05.582Z,912.23
2019-02-25T01:12:05.567Z,912.26
2019-02-25T01:13:05.520Z,912.22
2019-02-25T01:14:05.539Z,912.22
2019-02-25T01:15:06.190Z,912.17
2019-02-25T01:16:05.427Z,912.17
2019-02-25T01:17:05.393Z,912.10
2019-02-25T01:18:05.356Z,912.00
2019-02-25T01:19:05.331Z,911.94
2019-02-25T01:20:05.492Z,911.87
2019-02-25T01:21:05.268Z,911.88
2019-02-25T01:22:05.227Z,911.82
2019-02-25T01:23:05.221Z,911.83
2019-02-25T01:24:05.165Z,911.84
2019-02-25T01:25:05.159Z,911.84
2019-02-25T01:26:05.266Z,911.91
2019-02-25T01:27:05.084Z,911.90
2019-02-25T01:28:05.029Z,911.90
2019-02-25T01:29:05.019Z,911.91
2019-02-25T01:30:04.987Z,911.94
2019-02-25T01:31:05.211Z,911.97
2019-02-25T01:32:04.994Z,911.94
2019-02-25T01:33:04.896Z,911.94
2019-02-25T01:34:04.851Z,911.95
2019-02-25T01:35:04.835Z,911.93
2019-02-25T01:36:04.939Z,911.94
2019-02-25T01:37:04.748Z,911.89
2019-02-25T01:38:04.738Z,911.91
2019-02-25T01:39:04.723Z,911.93
2019-02-25T01:40:04.669Z,911.94
2019-02-25T01:41:04.646Z,911.97
2019-02-25T01:42:04.789Z,911.95
2019-02-25T01:43:04.562Z,911.97
2019-02-25T01:44:04.541Z,911.96
2019-02-25T01:45:04.524Z,911.94
2019-02-25T01:46:04.516Z,911.93
2019-02-25T01:47:04.448Z,911.91
2019-02-25T01:48:04.404Z,911.92
2019-02-25T01:49:04.388Z,911.88
2019-02-25T01:50:04.345Z,911.81
2019-02-25T01:51:04.344Z,911.80
2019-02-25T01:52:04.289Z,911.78
2019-02-25T01:53:04.262Z,911.77
2019-02-25T01:54:04.230Z,911.77
2019-02-25T01:55:04.177Z,911.80
2019-02-25T01:56:04.197Z,911.75
2019-02-25T01:57:04.170Z,911.73
2019-02-25T01:58:04.110Z,911.71
2019-02-25T02:00:04.043Z,911.61
2019-02-25T02:01:04.039Z,911.58
2019-02-25T02:02:03.976Z,911.61
2019-02-25T02:03:03.939Z,911.63
2019-02-25T02:04:03.920Z,911.60
2019-02-25T02:05:03.862Z,911.62
2019-02-25T02:06:03.831Z,911.64
2019-02-25T02:07:03.828Z,911.66
2019-02-25T02:08:03.796Z,911.68
2019-02-25T02:09:03.749Z,911.71
2019-02-25T02:10:03.726Z,911.78
2019-02-25T02:11:03.671Z,911.79
2019-02-25T02:12:03.657Z,911.87
2019-02-25T02:13:03.678Z,911.92
2019-02-25T02:14:03.762Z,911.98
2019-02-25T02:15:03.559Z,912.11
2019-02-25T02:16:03.535Z,912.16
2019-02-25T02:17:03.483Z,912.22
2019-02-25T02:18:03.473Z,912.25
2019-02-25T02:19:03.436Z,912.28
2019-02-25T02:20:03.612Z,912.23
2019-02-25T02:21:03.369Z,912.27
2019-02-25T02:22:03.337Z,912.22
2019-02-25T02:23:03.291Z,912.18
2019-02-25T02:24:03.279Z,912.14
2019-02-25T02:25:03.255Z,912.14
2019-02-25T02:26:03.366Z,912.12
2019-02-25T02:27:03.177Z,912.11
2019-02-25T02:28:03.142Z,912.09
2019-02-25T02:29:03.115Z,912.08
2019-02-25T02:30:03.114Z,912.04
2019-02-25T02:31:03.271Z,912.02
2019-02-25T02:32:03.038Z,911.99
2019-02-25T02:33:02.984Z,911.90
2019-02-25T02:34:02.950Z,911.90
2019-02-25T02:35:02.922Z,911.92
2019-02-25T02:36:02.885Z,911.93
2019-02-25T02:37:02.867Z,912.01
2019-02-25T02:38:02.835Z,912.02
2019-02-25T02:39:02.795Z,912.05
2019-02-25T02:40:02.759Z,912.16
2019-02-25T02:41:02.744Z,912.17
2019-02-25T02:42:02.688Z,912.20
2019-02-25T02:43:02.687Z,912.21
2019-02-25T02:44:02.642Z,912.21
2019-02-25T02:45:02.597Z,912.20
2019-02-25T02:46:02.621Z,912.20
2019-02-25T02:47:02.553Z,912.21
2019-02-25T02:48:02.517Z,912.20
2019-02-25T02:49:02.509Z,912.21
2019-02-25T02:50:02.605Z,912.18
2019-02-25T02:51:02.436Z,912.18
2019-02-25T02:52:02.394Z,912.14
2019-02-25T02:53:02.361Z,912.13
2019-02-25T02:54:02.322Z,912.15
2019-02-25T02:55:02.293Z,912.09
2019-02-25T02:56:02.412Z,912.13
2019-02-25T02:57:02.231Z,912.12
2019-02-25T02:58:02.192Z,912.15
2019-02-25T02:59:02.225Z,912.13
2019-02-25T03:00:02.159Z,912.14
2019-02-25T03:01:02.114Z,912.17
2019-02-25T03:02:02.069Z,912.18
2019-02-25T03:03:02.019Z,912.18
2019-02-25T03:04:01.993Z,912.15
2019-02-25T03:05:01.976Z,912.18
2019-02-25T03:06:01.947Z,912.14
2019-02-25T03:07:01.917Z,912.15
2019-02-25T03:08:01.879Z,912.14
2019-02-25T03:09:01.839Z,912.11
2019-02-25T03:10:01.825Z,912.10
2019-02-25T03:11:01.812Z,912.12
2019-02-25T03:12:01.733Z,912.09
2019-02-25T03:13:01.707Z,912.07
2019-02-25T03:14:01.701Z,912.05
2019-02-25T03:15:01.655Z,912.05
2019-02-25T03:16:01.632Z,912.04
2019-02-25T03:17:01.743Z,912.06
2019-02-25T03:18:01.552Z,912.04
2019-02-25T03:19:01.530Z,912.03
2019-02-25T03:20:01.485Z,912.01
2019-02-25T03:21:01.447Z,912.04
2019-02-25T03:22:01.450Z,912.06
2019-02-25T03:23:01.535Z,912.06
2019-02-25T03:24:01.376Z,912.07
2019-02-25T03:25:01.355Z,912.10
2019-02-25T03:26:01.288Z,912.08
2019-02-25T03:27:01.262Z,912.08
2019-02-25T03:28:01.274Z,912.07
2019-02-25T03:29:01.360Z,912.05
2019-02-25T03:30:01.185Z,912.00
2019-02-25T03:31:01.187Z,912.00
2019-02-25T03:32:01.108Z,911.99
2019-02-25T03:33:01.065Z,911.96
2019-02-25T03:34:01.260Z,911.94
2019-02-25T03:35:01.029Z,911.98
2019-02-25T03:36:00.986Z,911.95
2019-02-25T03:37:00.940Z,911.95
2019-02-25T03:38:00.906Z,911.99
2019-02-25T03:39:00.914Z,911.97
2019-02-25T03:40:00.854Z,912.01
2019-02-25T03:41:00.829Z,912.03
2019-02-25T03:42:00.797Z,912.08
2019-02-25T03:43:00.771Z,912.06
2019-02-25T03:44:00.715Z,912.06
2019-02-25T03:45:00.691Z,912.07
2019-02-25T03:46:00.668Z,912.06
2019-02-25T03:47:00.629Z,912.05
2019-02-25T03:48:00.605Z,912.04
2019-02-25T03:49:00.611Z,912.04
2019-02-25T03:50:00.527Z,912.01
2019-02-25T03:51:00.553Z,911.99
2019-02-25T03:52:00.482Z,911.98
2019-02-25T03:53:00.426Z,912.01
2019-02-25T03:54:00.417Z,911.99
2019-02-25T03:55:00.685Z,912.01
2019-02-25T03:56:00.354Z,912.01
2019-02-25T03:57:00.332Z,912.03
2019-02-25T03:58:00.298Z,912.01
2019-02-25T03:59:00.256Z,912.00
2019-02-25T04:00:00.300Z,911.98
2019-02-25T04:01:00.394Z,912.01
2019-02-25T04:02:00.161Z,911.95
2019-02-25T04:03:00.140Z,911.97
2019-02-25T04:04:00.087Z,911.98
2019-02-25T04:05:00.138Z,911.96
2019-02-25T04:06:00.170Z,911.94
2019-02-25T04:06:59.993Z,911.94
2019-02-25T04:07:59.981Z,911.94
2019-02-25T04:08:59.919Z,911.90
2019-02-25T04:09:59.908Z,911.89
2019-02-25T04:10:59.880Z,911.85
2019-02-25T04:11:59.829Z,911.89
2019-02-25T04:12:59.791Z,911.87
2019-02-25T04:13:59.758Z,911.84
2019-02-25T04:14:59.753Z,911.87
2019-02-25T04:15:59.708Z,911.82
2019-02-25T04:16:59.680Z,911.83
2019-02-25T04:17:59.658Z,911.80
2019-02-25T04:18:59.603Z,911.81
2019-02-25T04:19:59.588Z,911.79
2019-02-25T04:20:59.561Z,911.76
2019-02-25T04:21:59.582Z,911.73
2019-02-25T04:22:59.494Z,911.77
2019-02-25T04:23:59.451Z,911.71
2019-02-25T04:24:59.429Z,911.67
2019-02-25T04:25:59.385Z,911.66
2019-02-25T04:26:59.350Z,911.66
2019-02-25T04:27:59.314Z,911.67
2019-02-25T04:28:59.300Z,911.69
2019-02-25T04:29:59.252Z,911.70
2019-02-25T04:30:59.218Z,911.67
2019-02-25T04:31:59.198Z,911.65
2019-02-25T04:32:59.167Z,911.61
2019-02-25T04:33:59.165Z,911.62
2019-02-25T04:34:59.140Z,911.60
2019-02-25T04:35:59.085Z,911.57
2019-02-25T04:36:59.049Z,911.57
2019-02-25T04:37:58.998Z,911.57
2019-02-25T04:38:58.982Z,911.54
2019-02-25T04:39:58.964Z,911.54
2019-02-25T04:40:58.911Z,911.51
2019-02-25T04:41:58.868Z,911.49
2019-02-25T04:42:58.855Z,911.46
2019-02-25T04:43:58.827Z,911.45
2019-02-25T04:44:58.800Z,911.45
2019-02-25T04:45:58.750Z,911.43
2019-02-25T04:46:58.726Z,911.40
2019-02-25T04:47:58.887Z,911.40
2019-02-25T04:48:58.649Z,911.37
2019-02-25T04:49:58.635Z,911.35
2019-02-25T04:50:58.611Z,911.38
2019-02-25T04:51:58.549Z,911.37
2019-02-25T04:52:58.546Z,911.36
2019-02-25T04:53:58.498Z,911.35
2019-02-25T04:54:58.467Z,911.32
2019-02-25T04:55:58.439Z,911.32
2019-02-25T04:56:58.410Z,911.27
2019-02-25T04:57:58.361Z,911.25
2019-02-25T04:58:58.501Z,911.29
2019-02-25T04:59:58.315Z,911.24
2019-02-25T05:00:58.286Z,911.26
2019-02-25T05:01:58.248Z,911.27
2019-02-25T05:02:58.218Z,911.26
2019-02-25T05:03:58.236Z,911.26
2019-02-25T05:04:58.173Z,911.28
2019-02-25T05:05:58.113Z,911.28
2019-02-25T05:06:58.093Z,911.26
2019-02-25T05:07:58.073Z,911.26
2019-02-25T05:08:58.026Z,911.22
2019-02-25T05:09:58.002Z,911.24
2019-02-25T05:10:57.971Z,911.23
2019-02-25T05:11:57.935Z,911.20
2019-02-25T05:12:57.900Z,911.24
2019-02-25T05:13:57.872Z,911.21
2019-02-25T05:14:57.834Z,911.19
2019-02-25T05:15:57.840Z,911.14
2019-02-25T05:16:57.773Z,911.11
2019-02-25T05:17:57.762Z,911.11
2019-02-25T05:18:57.707Z,911.10
2019-02-25T05:19:57.667Z,911.12
2019-02-25T05:20:57.644Z,911.09
2019-02-25T05:21:57.686Z,911.06
2019-02-25T05:22:57.557Z,911.02
2019-02-25T05:23:57.528Z,911.04
2019-02-25T05:24:57.517Z,911.02
2019-02-25T05:25:57.464Z,911.00
2019-02-25T05:26:57.434Z,911.03
2019-02-25T05:27:57.419Z,911.02
2019-02-25T05:28:57.392Z,911.03
2019-02-25T05:29:57.334Z,911.00
2019-02-25T05:30:57.306Z,910.98
2019-02-25T05:31:57.297Z,910.96
2019-02-25T05:32:57.262Z,910.95
2019-02-25T05:33:57.225Z,910.92
2019-02-25T05:34:57.203Z,910.93
2019-02-25T05:35:57.165Z,910.88
2019-02-25T05:36:57.123Z,910.84
2019-02-25T05:37:57.091Z,910.86
2019-02-25T05:38:58.640Z,910.83
2019-02-25T05:39:57.046Z,910.85
2019-02-25T05:40:57.005Z,910.86
2019-02-25T05:41:56.971Z,910.87
2019-02-25T05:42:56.940Z,910.89
2019-02-25T05:43:56.909Z,910.93
2019-02-25T05:44:57.076Z,910.91
2019-02-25T05:45:56.841Z,910.92
2019-02-25T05:46:56.814Z,910.88
2019-02-25T05:47:56.782Z,910.88
2019-02-25T05:48:56.754Z,910.90
2019-02-25T05:49:56.709Z,910.90
2019-02-25T05:50:56.691Z,910.90
2019-02-25T05:51:56.643Z,910.90
2019-02-25T05:52:56.597Z,910.90
2019-02-25T05:53:56.589Z,910.85
2019-02-25T05:54:56.535Z,910.86
2019-02-25T05:55:56.528Z,910.84
2019-02-25T05:56:56.496Z,910.78
2019-02-25T05:57:56.451Z,910.78
2019-02-25T05:58:56.437Z,910.80
2019-02-25T05:59:56.404Z,910.80
2019-02-25T06:00:56.542Z,910.83
2019-02-25T06:01:56.329Z,910.80
2019-02-25T06:02:56.299Z,910.77
2019-02-25T06:03:56.292Z,910.71
2019-02-25T06:04:56.238Z,910.67
2019-02-25T06:05:56.204Z,910.67
2019-02-25T06:06:56.181Z,910.64
2019-02-25T06:07:56.133Z,910.59
2019-02-25T06:08:56.119Z,910.62
2019-02-25T06:09:56.081Z,910.65
2019-02-25T06:10:56.044Z,910.68
2019-02-25T06:11:55.990Z,910.72
2019-02-25T06:12:55.969Z,910.72
2019-02-25T06:13:55.950Z,910.79
2019-02-25T06:14:55.917Z,910.81
2019-02-25T06:15:55.887Z,910.83
2019-02-25T06:16:55.842Z,910.84
2019-02-25T06:17:55.805Z,910.86
2019-02-25T06:18:55.792Z,910.82
2019-02-25T06:19:55.733Z,910.81
2019-02-25T06:20:55.721Z,910.75
2019-02-25T06:21:55.687Z,910.77
2019-02-25T06:22:55.662Z,910.74
2019-02-25T06:23:55.605Z,910.75
2019-02-25T06:24:55.591Z,910.70
2019-02-25T06:25:55.563Z,910.68
2019-02-25T06:26:55.676Z,910.65
2019-02-25T06:27:55.504Z,910.67
2019-02-25T06:28:55.452Z,910.66
2019-02-25T06:29:55.432Z,910.65
2019-02-25T06:30:55.383Z,910.69
2019-02-25T06:31:55.391Z,910.72
2019-02-25T06:32:55.327Z,910.72
2019-02-25T06:33:55.286Z,910.72
2019-02-25T06:34:55.253Z,910.74
2019-02-25T06:35:55.225Z,910.74
2019-02-25T06:36:55.228Z,910.74
2019-02-25T06:37:55.169Z,910.73
2019-02-25T06:38:55.190Z,910.72
2019-02-25T06:39:55.116Z,910.70
2019-02-25T06:40:55.088Z,910.68
2019-02-25T06:41:55.056Z,910.66
2019-02-25T06:42:55.015Z,910.69
2019-02-25T06:43:54.986Z,910.69
2019-02-25T06:44:54.935Z,910.75
2019-02-25T06:45:54.923Z,910.75
2019-02-25T06:46:54.866Z,910.79
2019-02-25T06:47:54.859Z,910.76
2019-02-25T06:48:54.803Z,910.75
2019-02-25T06:49:54.790Z,910.75
2019-02-25T06:50:54.762Z,910.73
2019-02-25T06:51:54.728Z,910.64
2019-02-25T06:52:54.697Z,910.67
2019-02-25T06:53:54.665Z,910.65
2019-02-25T06:54:54.631Z,910.67
2019-02-25T06:55:54.599Z,910.66
2019-02-25T06:56:54.570Z,910.64
2019-02-25T06:57:54.537Z,910.66
2019-02-25T06:58:54.633Z,910.66
2019-02-25T06:59:54.478Z,910.67
2019-02-25T07:00:54.447Z,910.72
2019-02-25T07:01:54.408Z,910.73
2019-02-25T07:02:54.361Z,910.77
2019-02-25T07:03:54.351Z,910.77
2019-02-25T07:05:54.267Z,910.82
2019-02-25T07:06:54.245Z,910.81
2019-02-25T07:07:54.192Z,910.82
2019-02-25T07:08:54.168Z,910.78
2019-02-25T07:09:54.206Z,910.76
2019-02-25T07:10:54.119Z,910.78
2019-02-25T07:11:54.067Z,910.76
2019-02-25T07:12:54.050Z,910.73
2019-02-25T07:13:54.022Z,910.73
2019-02-25T07:14:53.982Z,910.72
2019-02-25T07:15:54.302Z,910.69
2019-02-25T07:16:53.914Z,910.70
2019-02-25T07:17:53.897Z,910.71
2019-02-25T07:18:53.864Z,910.67
2019-02-25T07:19:53.825Z,910.68
2019-02-25T07:20:54.127Z,910.71
2019-02-25T07:21:53.781Z,910.71
2019-02-25T07:22:53.727Z,910.72
2019-02-25T07:23:53.705Z,910.73
2019-02-25T07:24:53.657Z,910.78
2019-02-25T07:25:53.635Z,910.76
2019-02-25T07:26:53.582Z,910.78
2019-02-25T07:27:53.567Z,910.79
2019-02-25T07:28:53.528Z,910.79
2019-02-25T07:29:53.500Z,910.77
2019-02-25T07:30:53.459Z,910.79
2019-02-25T07:31:53.429Z,910.80
2019-02-25T07:32:53.398Z,910.78
2019-02-25T07:33:53.363Z,910.79
2019-02-25T07:34:53.332Z,910.75
2019-02-25T07:35:53.307Z,910.70
2019-02-25T07:36:53.462Z,910.70
2019-02-25T07:37:53.234Z,910.71
2019-02-25T07:38:53.202Z,910.74
2019-02-25T07:39:53.195Z,910.76
2019-02-25T07:40:53.142Z,910.75
2019-02-25T07:41:53.272Z,910.75
2019-02-25T07:42:53.064Z,910.74
2019-02-25T07:43:53.052Z,910.72
2019-02-25T07:44:53.026Z,910.71
2019-02-25T07:45:52.988Z,910.69
2019-02-25T07:46:52.950Z,910.67
2019-02-25T07:47:52.920Z,910.67
2019-02-25T07:48:52.890Z,910.68
2019-02-25T07:49:52.844Z,910.63
2019-02-25T07:50:52.832Z,910.62
2019-02-25T07:51:52.795Z,910.65
2019-02-25T07:52:52.766Z,910.61
2019-02-25T07:53:52.731Z,910.64
2019-02-25T07:54:52.759Z,910.63
2019-02-25T07:56:01.938Z,910.67
2019-02-25T07:56:52.629Z,910.67
2019-02-25T07:57:52.737Z,910.68
2019-02-25T07:58:52.566Z,910.72
2019-02-25T07:59:52.530Z,910.69
2019-02-25T08:00:52.501Z,910.69
2019-02-25T08:01:52.479Z,910.70
2019-02-25T08:02:52.471Z,910.75
2019-02-25T08:03:52.605Z,910.74
2019-02-25T08:04:52.362Z,910.79
2019-02-25T08:05:52.342Z,910.79
2019-02-25T08:06:52.314Z,910.77
2019-02-25T08:07:52.278Z,910.79
2019-02-25T08:08:52.242Z,910.77
2019-02-25T08:09:52.241Z,910.81
2019-02-25T08:10:52.220Z,910.85
2019-02-25T08:11:52.137Z,910.82
2019-02-25T08:12:52.124Z,910.83
2019-02-25T08:13:52.285Z,910.78
2019-02-25T08:14:52.052Z,910.81
2019-02-25T08:15:52.019Z,910.79
2019-02-25T08:16:51.988Z,910.81
2019-02-25T08:17:51.958Z,910.78
2019-02-25T08:18:51.980Z,910.79
2019-02-25T08:19:51.884Z,910.77
2019-02-25T08:20:51.861Z,910.76
2019-02-25T08:21:51.822Z,910.76
2019-02-25T08:22:51.789Z,910.74
2019-02-25T08:23:51.908Z,910.75
2019-02-25T08:24:51.731Z,910.75
2019-02-25T08:25:52.118Z,910.69
2019-02-25T08:26:51.638Z,910.67
2019-02-25T08:27:51.631Z,910.67
2019-02-25T08:28:51.574Z,910.64
2019-02-25T08:29:51.690Z,910.65
2019-02-25T08:30:51.521Z,910.65
2019-02-25T08:31:51.507Z,910.64
2019-02-25T08:32:51.483Z,910.63
2019-02-25T08:33:51.428Z,910.63
2019-02-25T08:34:51.400Z,910.65
2019-02-25T08:35:51.601Z,910.64
2019-02-25T08:36:51.335Z,910.65
2019-02-25T08:37:51.287Z,910.65
2019-02-25T08:38:51.252Z,910.67
2019-02-25T08:39:51.216Z,910.69
2019-02-25T08:40:51.360Z,910.68
2019-02-25T08:41:51.175Z,910.67
2019-02-25T08:42:51.140Z,910.65
2019-02-25T08:43:51.111Z,910.60
2019-02-25T08:44:51.076Z,910.61
2019-02-25T08:45:51.023Z,910.59
2019-02-25T08:46:50.992Z,910.61
2019-02-25T08:47:50.989Z,910.62
2019-02-25T08:48:50.944Z,910.62
2019-02-25T08:49:50.894Z,910.68
2019-02-25T08:50:50.888Z,910.68
2019-02-25T08:51:50.849Z,910.69
2019-02-25T08:52:50.828Z,910.71
2019-02-25T08:53:50.822Z,910.75
2019-02-25T08:54:50.762Z,910.74
2019-02-25T08:55:50.728Z,910.82
2019-02-25T08:56:50.668Z,910.85
2019-02-25T08:57:50.658Z,910.91
2019-02-25T08:58:50.614Z,910.96
2019-02-25T08:59:50.596Z,910.94
2019-02-25T09:00:50.579Z,910.98
2019-02-25T09:01:50.671Z,910.95
2019-02-25T09:02:50.483Z,910.95
2019-02-25T09:03:50.439Z,910.96
2019-02-25T09:04:50.434Z,910.96
2019-02-25T09:05:50.399Z,910.97
2019-02-25T09:06:50.361Z,910.99
2019-02-25T09:07:50.421Z,911.03
2019-02-25T09:08:50.281Z,911.04
2019-02-25T09:09:50.259Z,911.08
2019-02-25T09:10:50.244Z,911.20
2019-02-25T09:11:50.187Z,911.30
2019-02-25T09:12:50.179Z,911.43
2019-02-25T09:13:50.133Z,911.56
2019-02-25T09:14:50.088Z,911.67
2019-02-25T09:15:50.103Z,911.74
2019-02-25T09:16:50.027Z,911.80
2019-02-25T09:17:50.015Z,911.84
2019-02-25T09:18:49.980Z,911.91
2019-02-25T09:19:49.916Z,911.91
2019-02-25T09:20:49.909Z,911.93
2019-02-25T09:21:49.876Z,911.96
2019-02-25T09:22:49.846Z,911.98
2019-02-25T09:23:49.994Z,911.99
2019-02-25T09:24:49.758Z,912.05
2019-02-25T09:25:49.745Z,912.07
2019-02-25T10:54:33.677Z,912.51
2019-02-25T10:55:33.206Z,912.51
2019-02-25T10:57:09.408Z,912.51
2019-02-25T11:42:20.546Z,912.57
2019-02-25T11:43:18.918Z,912.55
2019-02-25T13:21:22.185Z,912.86
2019-02-25T13:22:21.904Z,912.87
2019-02-25T13:23:21.685Z,912.83
2019-02-25T13:24:21.640Z,912.81
2019-02-25T13:25:21.627Z,912.81
2019-02-25T13:26:21.599Z,912.82
2019-02-25T13:27:21.791Z,912.82
2019-02-25T13:28:23.177Z,912.80
2019-02-25T13:29:21.484Z,912.73
2019-02-25T13:30:21.455Z,912.74
2019-02-25T13:31:21.431Z,912.76
2019-02-25T13:32:21.660Z,912.73
2019-02-25T13:33:21.397Z,912.72
2019-02-25T13:34:21.395Z,912.74
2019-02-25T13:35:21.344Z,912.75
2019-02-25T13:36:21.330Z,912.71
2019-02-25T13:38:21.271Z,912.78
2019-02-25T13:39:21.150Z,912.77
2019-02-25T13:40:22.385Z,912.78
2019-02-25T13:41:21.131Z,912.76
2019-02-25T13:42:21.205Z,912.74
2019-02-25T13:43:21.061Z,912.74
2019-02-25T13:44:22.444Z,912.74
2019-02-25T13:45:21.219Z,912.74
2019-02-25T13:46:20.961Z,912.69
2019-02-25T13:47:21.210Z,912.73
2019-02-25T13:48:20.938Z,912.70
2019-02-25T13:49:20.879Z,912.71
2019-02-25T13:50:20.890Z,912.74
2019-02-25T13:51:20.783Z,912.69
2019-02-25T13:52:21.006Z,912.73
2019-02-25T13:53:20.954Z,912.68
2019-02-25T13:54:20.719Z,912.63
2019-02-25T13:55:20.734Z,912.62
2019-02-25T13:56:20.671Z,912.61
2019-02-25T13:57:20.657Z,912.60
2019-02-25T13:58:20.882Z,912.62
2019-02-25T13:59:21.791Z,912.70
2019-02-25T14:00:20.561Z,912.76
2019-02-25T14:01:20.595Z,912.79
2019-02-25T14:02:20.695Z,912.78
2019-02-25T14:03:20.481Z,912.76
2019-02-25T14:04:20.832Z,912.82
2019-02-25T14:05:20.447Z,912.81
2019-02-25T14:06:20.375Z,912.83
2019-02-25T14:07:20.319Z,912.75
2019-02-25T14:08:20.558Z,912.70
2019-02-25T14:09:20.711Z,912.65
2019-02-25T14:10:20.323Z,912.64
2019-02-25T14:11:20.223Z,912.65
2019-02-25T14:12:20.172Z,912.58
2019-02-25T14:13:20.175Z,912.54
2019-02-25T14:14:20.185Z,912.54
2019-02-25T14:15:20.157Z,912.52
2019-02-25T14:16:20.081Z,912.47
2019-02-25T14:17:20.282Z,912.49
2019-02-25T14:18:19.997Z,912.46
2019-02-25T14:20:20.501Z,912.41
2019-02-25T14:21:19.974Z,912.45
2019-02-25T14:22:19.968Z,912.38
2019-02-25T14:23:20.369Z,912.41
2019-02-25T14:24:20.749Z,912.43
2019-02-25T14:25:19.989Z,912.44
2019-02-25T14:26:20.227Z,912.43
2019-02-25T14:27:19.755Z,912.43
2019-02-25T14:28:19.684Z,912.44
2019-02-25T14:29:19.672Z,912.47
2019-02-25T14:30:19.688Z,912.51
2019-02-25T14:31:19.663Z,912.50
2019-02-25T14:32:20.161Z,912.45
2019-02-25T14:33:19.578Z,912.49
2019-02-25T14:34:19.537Z,912.47
2019-02-25T14:35:19.507Z,912.46
2019-02-25T14:36:20.916Z,912.48
2019-02-25T14:37:19.651Z,912.43
2019-02-25T14:38:20.351Z,912.41
2019-02-25T14:39:22.141Z,912.41
2019-02-25T14:40:21.262Z,912.38
2019-02-25T14:41:21.149Z,912.37
2019-02-25T14:42:21.032Z,912.32
2019-02-25T14:43:20.599Z,912.31
2019-02-25T14:44:19.293Z,912.29
2019-02-25T14:45:21.601Z,912.29
2019-02-25T14:46:24.056Z,912.31
2019-02-25T14:47:22.239Z,912.26
2019-02-25T14:49:19.540Z,912.24
2019-02-25T14:50:19.258Z,912.24
2019-02-25T14:51:19.065Z,912.22
2019-02-25T14:52:19.311Z,912.18
2019-02-25T14:53:18.992Z,912.20
2019-02-25T14:54:19.056Z,912.17
2019-02-25T14:55:19.202Z,912.13
2019-02-25T14:56:18.885Z,912.10
2019-02-25T14:57:20.326Z,912.09
2019-02-25T14:58:18.842Z,912.01
2019-02-25T14:59:20.373Z,911.99
2019-02-25T15:00:18.861Z,911.94
2019-02-25T15:01:20.367Z,911.96
2019-02-25T15:02:18.706Z,911.96
2019-02-25T15:03:20.306Z,911.95
2019-02-25T15:04:18.626Z,911.92
2019-02-25T15:05:19.363Z,911.93
2019-02-25T15:06:18.690Z,911.94
2019-02-25T15:07:18.729Z,911.97
2019-02-25T15:08:19.790Z,911.94
2019-02-25T15:09:18.521Z,911.94
2019-02-25T15:10:18.539Z,911.92
2019-02-25T15:11:18.708Z,911.89
2019-02-25T15:12:18.409Z,911.86
2019-02-25T15:13:18.391Z,911.86
2019-02-25T15:14:19.240Z,911.84
2019-02-25T15:15:18.301Z,911.85
2019-02-25T15:16:18.749Z,911.84
2019-02-25T15:17:37.465Z,911.84
2019-02-25T15:18:19.648Z,911.87
2019-02-25T15:19:18.228Z,911.87
2019-02-25T15:20:18.621Z,911.89
2019-02-25T15:21:18.594Z,911.91
2019-02-25T15:22:18.152Z,911.92
2019-02-25T15:23:18.921Z,911.88
2019-02-25T15:24:19.077Z,911.90
2019-02-25T15:25:18.029Z,911.89
2019-02-25T15:27:18.027Z,911.86
2019-02-25T15:28:18.314Z,911.84
2019-02-25T15:29:17.942Z,911.81
2019-02-25T15:30:18.600Z,911.80
2019-02-25T15:31:17.817Z,911.76
2019-02-25T15:34:19.296Z,911.72
2019-02-25T15:51:48.135Z,911.35
2019-02-25T15:52:47.812Z,911.37
2019-02-25T15:53:48.970Z,911.31
2019-02-25T15:54:47.606Z,911.35
2019-02-25T15:56:27.079Z,911.33
2019-02-25T15:56:47.588Z,911.30
2019-02-25T15:57:47.849Z,911.32
2019-02-25T15:58:47.781Z,911.28
2019-02-25T15:59:47.488Z,911.25
2019-02-25T16:00:47.461Z,911.23
2019-02-25T16:01:47.410Z,911.18
2019-02-25T16:02:47.663Z,911.15
2019-02-25T16:03:49.066Z,911.09
2019-02-25T16:04:47.322Z,911.07
2019-02-25T16:05:47.312Z,911.01
2019-02-25T16:06:47.238Z,911.03
2019-02-25T16:07:49.774Z,911.00
2019-02-25T16:08:49.961Z,910.98
2019-02-25T16:09:47.188Z,910.97
2019-02-25T16:10:48.831Z,910.94
2019-02-25T16:11:47.450Z,910.93
2019-02-25T16:12:47.129Z,910.96
2019-02-25T16:13:47.115Z,910.89
2019-02-25T16:14:48.811Z,910.90
2019-02-25T16:15:47.254Z,910.89
2019-02-25T16:16:47.206Z,910.85
2019-02-25T16:17:49.563Z,910.85
2019-02-25T16:18:47.109Z,910.81
2019-02-25T16:19:47.976Z,910.81
2019-02-25T16:20:47.088Z,910.72
2019-02-25T16:21:46.815Z,910.75
2019-02-25T16:22:46.889Z,910.71
2019-02-25T16:38:34.672Z,910.33
2019-02-25T16:39:32.834Z,910.29
2019-02-25T16:40:33.366Z,910.27
2019-02-25T16:41:36.218Z,910.24
2019-02-25T16:42:33.177Z,910.20
2019-02-25T16:43:32.720Z,910.17
2019-02-25T16:45:35.448Z,910.06
2019-02-25T16:46:34.673Z,910.04
2019-02-25T16:47:35.506Z,910.01
2019-02-25T16:48:35.654Z,909.97
2019-02-25T17:09:33.733Z,909.49
2019-02-25T17:10:33.647Z,909.49
2019-02-25T17:11:31.836Z,909.44
2019-02-25T17:12:31.799Z,909.42
2019-02-25T17:13:33.055Z,909.39
2019-02-25T17:14:31.763Z,909.39
2019-02-25T17:15:31.866Z,909.38
2019-02-25T17:16:31.730Z,909.32
2019-02-25T17:17:31.652Z,909.30